sensor_id;sensor_type;location;lat;lon;timestamp;pressure;altitude;pressure_sealevel;temperature;humidity
42511;BME280;28141;51.120;17.114;2022-08-27T00:00:25;101118.70;;;30.85;41.51
42511;BME280;28141;51.120;17.114;2022-08-27T00:03:28;101104.13;;;30.83;41.71
42511;BME280;28141;51.120;17.114;2022-08-27T00:06:31;101111.68;;;30.83;41.62
42511;BME280;28141;51.120;17.114;2022-08-27T00:09:35;101108.34;;;30.81;42.04
42511;BME280;28141;51.120;17.114;2022-08-27T00:12:38;101113.36;;;30.79;41.51
42511;BME280;28141;51.120;17.114;2022-08-27T00:15:43;101105.23;;;30.77;41.15
42511;BME280;28141;51.120;17.114;2022-08-27T00:18:47;101102.44;;;30.77;42.35
42511;BME280;28141;51.120;17.114;2022-08-27T00:21:51;101096.00;;;30.77;41.39
42511;BME280;28141;51.120;17.114;2022-08-27T00:24:54;101101.29;;;30.73;41.52
42511;BME280;28141;51.120;17.114;2022-08-27T00:27:57;101109.95;;;30.72;42.25
42511;BME280;28141;51.120;17.114;2022-08-27T00:31:01;101107.71;;;30.69;41.30
42511;BME280;28141;51.120;17.114;2022-08-27T00:34:35;101112.99;;;30.65;41.87
42511;BME280;28141;51.120;17.114;2022-08-27T00:37:39;101109.89;;;30.62;41.83
42511;BME280;28141;51.120;17.114;2022-08-27T00:40:42;101113.53;;;30.62;41.93
42511;BME280;28141;51.120;17.114;2022-08-27T00:43:53;101109.34;;;30.60;41.41
42511;BME280;28141;51.120;17.114;2022-08-27T00:47:02;101111.56;;;30.58;41.48
42511;BME280;28141;51.120;17.114;2022-08-27T00:50:12;101112.67;;;30.57;42.62
42511;BME280;28141;51.120;17.114;2022-08-27T00:53:21;101116.23;;;30.52;41.35
42511;BME280;28141;51.120;17.114;2022-08-27T00:56:52;101113.16;;;30.48;42.17
42511;BME280;28141;51.120;17.114;2022-08-27T00:59:56;101098.60;;;30.46;42.46
42511;BME280;28141;51.120;17.114;2022-08-27T01:02:59;101105.04;;;30.47;42.69
42511;BME280;28141;51.120;17.114;2022-08-27T01:06:05;101103.04;;;30.42;42.58
42511;BME280;28141;51.120;17.114;2022-08-27T01:09:14;101099.66;;;30.40;42.34
42511;BME280;28141;51.120;17.114;2022-08-27T01:12:20;101100.51;;;30.41;43.15
42511;BME280;28141;51.120;17.114;2022-08-27T01:15:26;101102.46;;;30.40;42.72
42511;BME280;28141;51.120;17.114;2022-08-27T01:18:32;101100.23;;;30.37;42.68
42511;BME280;28141;51.120;17.114;2022-08-27T01:25:22;101104.06;;;30.26;43.27
42511;BME280;28141;51.120;17.114;2022-08-27T01:28:26;101102.66;;;30.29;42.58
42511;BME280;28141;51.120;17.114;2022-08-27T01:31:31;101111.88;;;30.29;43.22
42511;BME280;28141;51.120;17.114;2022-08-27T01:34:35;101105.74;;;30.27;42.71
42511;BME280;28141;51.120;17.114;2022-08-27T01:37:40;101104.06;;;30.26;42.69
42511;BME280;28141;51.120;17.114;2022-08-27T01:40:45;101108.23;;;30.24;42.88
42511;BME280;28141;51.120;17.114;2022-08-27T01:43:48;101113.23;;;30.22;42.48
42511;BME280;28141;51.120;17.114;2022-08-27T01:47:22;101109.57;;;30.16;42.69
42511;BME280;28141;51.120;17.114;2022-08-27T01:50:32;101106.20;;;30.14;42.77
42511;BME280;28141;51.120;17.114;2022-08-27T01:53:37;101099.77;;;30.13;42.87
42511;BME280;28141;51.120;17.114;2022-08-27T01:56:41;101101.14;;;30.11;42.11
42511;BME280;28141;51.120;17.114;2022-08-27T01:59:44;101092.17;;;30.09;42.78
42511;BME280;28141;51.120;17.114;2022-08-27T02:02:48;101102.51;;;30.08;42.45
42511;BME280;28141;51.120;17.114;2022-08-27T02:05:51;101093.58;;;30.06;42.46
42511;BME280;28141;51.120;17.114;2022-08-27T02:08:56;101100.27;;;30.05;42.83
42511;BME280;28141;51.120;17.114;2022-08-27T02:11:59;101083.77;;;30.04;42.91
42511;BME280;28141;51.120;17.114;2022-08-27T02:15:29;101089.04;;;30.00;42.98
42511;BME280;28141;51.120;17.114;2022-08-27T02:18:35;101082.03;;;29.98;42.61
42511;BME280;28141;51.120;17.114;2022-08-27T02:21:41;101084.27;;;29.96;42.75
42511;BME280;28141;51.120;17.114;2022-08-27T02:24:44;101090.93;;;29.95;43.14
42511;BME280;28141;51.120;17.114;2022-08-27T02:27:49;101090.87;;;29.90;42.72
42511;BME280;28141;51.120;17.114;2022-08-27T02:30:52;101094.52;;;29.90;42.73
42511;BME280;28141;51.120;17.114;2022-08-27T02:33:56;101090.29;;;29.88;43.45
42511;BME280;28141;51.120;17.114;2022-08-27T02:37:00;101086.91;;;29.86;42.56
42511;BME280;28141;51.120;17.114;2022-08-27T02:40:04;101093.09;;;29.88;43.00
42511;BME280;28141;51.120;17.114;2022-08-27T02:43:08;101088.90;;;29.85;42.87
42511;BME280;28141;51.120;17.114;2022-08-27T02:46:38;101088.58;;;29.82;43.30
42511;BME280;28141;51.120;17.114;2022-08-27T02:49:43;101095.02;;;29.82;43.28
42511;BME280;28141;51.120;17.114;2022-08-27T02:52:46;101092.73;;;29.79;44.22
42511;BME280;28141;51.120;17.114;2022-08-27T02:55:49;101084.62;;;29.77;42.63
42511;BME280;28141;51.120;17.114;2022-08-27T02:58:54;101090.47;;;29.76;42.73
42511;BME280;28141;51.120;17.114;2022-08-27T03:01:57;101089.62;;;29.75;43.73
42511;BME280;28141;51.120;17.114;2022-08-27T03:05:01;101099.09;;;29.74;43.76
42511;BME280;28141;51.120;17.114;2022-08-27T03:08:05;101107.77;;;29.73;42.99
42511;BME280;28141;51.120;17.114;2022-08-27T03:11:08;101101.35;;;29.72;43.04
42511;BME280;28141;51.120;17.114;2022-08-27T03:14:12;101113.88;;;29.70;44.06
42511;BME280;28141;51.120;17.114;2022-08-27T03:17:15;101116.93;;;29.68;43.68
42511;BME280;28141;51.120;17.114;2022-08-27T03:20:58;101122.67;;;29.57;43.73
42511;BME280;28141;51.120;17.114;2022-08-27T03:24:04;101131.96;;;29.62;43.47
42511;BME280;28141;51.120;17.114;2022-08-27T03:27:08;101125.27;;;29.63;43.37
42511;BME280;28141;51.120;17.114;2022-08-27T03:30:14;101128.05;;;29.63;43.31
42511;BME280;28141;51.120;17.114;2022-08-27T03:33:20;101127.47;;;29.61;43.80
42511;BME280;28141;51.120;17.114;2022-08-27T03:36:26;101131.12;;;29.62;42.92
42511;BME280;28141;51.120;17.114;2022-08-27T03:39:31;101131.96;;;29.62;43.70
42511;BME280;28141;51.120;17.114;2022-08-27T03:42:35;101143.13;;;29.62;43.74
42511;BME280;28141;51.120;17.114;2022-08-27T03:45:41;101145.63;;;29.64;44.11
42511;BME280;28141;51.120;17.114;2022-08-27T03:49:11;101155.13;;;29.63;43.66
42511;BME280;28141;51.120;17.114;2022-08-27T03:52:15;101161.83;;;29.62;44.15
42511;BME280;28141;51.120;17.114;2022-08-27T03:55:19;101159.30;;;29.60;43.34
42511;BME280;28141;51.120;17.114;2022-08-27T03:58:23;101166.30;;;29.63;44.03
42511;BME280;28141;51.120;17.114;2022-08-27T04:01:26;101147.02;;;29.61;43.56
42511;BME280;28141;51.120;17.114;2022-08-27T04:04:31;101169.36;;;29.61;44.18
42511;BME280;28141;51.120;17.114;2022-08-27T04:07:35;101194.78;;;29.65;43.08
42511;BME280;28141;51.120;17.114;2022-08-27T04:10:39;101164.66;;;29.67;43.81
42511;BME280;28141;51.120;17.114;2022-08-27T04:13:44;101168.55;;;29.66;43.91
42511;BME280;28141;51.120;17.114;2022-08-27T04:16:47;101161.88;;;29.67;43.55
42511;BME280;28141;51.120;17.114;2022-08-27T04:19:51;101154.33;;;29.67;43.49
42511;BME280;28141;51.120;17.114;2022-08-27T04:23:20;101156.54;;;29.65;43.57
42511;BME280;28141;51.120;17.114;2022-08-27T04:26:24;101144.27;;;29.66;43.19
42511;BME280;28141;51.120;17.114;2022-08-27T04:29:28;101148.75;;;29.67;43.81
42511;BME280;28141;51.120;17.114;2022-08-27T04:32:31;101148.23;;;29.70;43.09
42511;BME280;28141;51.120;17.114;2022-08-27T04:35:35;101139.86;;;29.70;43.46
42511;BME280;28141;51.120;17.114;2022-08-27T04:38:39;101128.69;;;29.70;43.22
42511;BME280;28141;51.120;17.114;2022-08-27T04:41:42;101135.41;;;29.74;43.66
42511;BME280;28141;51.120;17.114;2022-08-27T04:44:46;101127.62;;;29.76;43.69
42511;BME280;28141;51.120;17.114;2022-08-27T04:47:50;101115.59;;;29.76;43.27
42511;BME280;28141;51.120;17.114;2022-08-27T04:50:53;101118.13;;;29.77;43.26
42511;BME280;28141;51.120;17.114;2022-08-27T04:53:57;101131.58;;;29.81;42.78
42511;BME280;28141;51.120;17.114;2022-08-27T04:57:03;101124.88;;;29.82;42.64
42511;BME280;28141;51.120;17.114;2022-08-27T05:00:32;101139.69;;;29.82;43.22
42511;BME280;28141;51.120;17.114;2022-08-27T05:03:36;101132.74;;;29.85;43.47
42511;BME280;28141;51.120;17.114;2022-08-27T05:06:39;101134.40;;;29.86;42.51
42511;BME280;28141;51.120;17.114;2022-08-27T05:09:42;101143.62;;;29.86;43.35
42511;BME280;28141;51.120;17.114;2022-08-27T05:12:46;101136.41;;;29.90;43.02
42511;BME280;28141;51.120;17.114;2022-08-27T05:15:58;101139.52;;;29.94;42.61
42511;BME280;28141;51.120;17.114;2022-08-27T05:19:06;101146.22;;;29.93;43.33
42511;BME280;28141;51.120;17.114;2022-08-27T05:22:10;101148.51;;;29.96;42.84
42511;BME280;28141;51.120;17.114;2022-08-27T05:25:14;101141.27;;;30.00;43.45
42511;BME280;28141;51.120;17.114;2022-08-27T05:28:43;101141.27;;;30.00;42.91
42511;BME280;28141;51.120;17.114;2022-08-27T05:31:47;101140.75;;;30.03;43.49
42511;BME280;28141;51.120;17.114;2022-08-27T05:34:50;101141.34;;;30.05;42.65
42511;BME280;28141;51.120;17.114;2022-08-27T05:37:54;101139.67;;;30.09;41.98
42511;BME280;28141;51.120;17.114;2022-08-27T05:41:06;101141.94;;;30.12;43.99
42511;BME280;28141;51.120;17.114;2022-08-27T05:44:11;101135.25;;;30.13;42.84
42511;BME280;28141;51.120;17.114;2022-08-27T05:47:17;101143.95;;;30.17;42.62
42511;BME280;28141;51.120;17.114;2022-08-27T05:50:20;101143.66;;;30.18;43.15
42511;BME280;28141;51.120;17.114;2022-08-27T05:53:24;101144.03;;;30.27;42.68
42511;BME280;28141;51.120;17.114;2022-08-27T05:56:54;101152.41;;;30.27;42.47
42511;BME280;28141;51.120;17.114;2022-08-27T05:59:57;101145.71;;;30.28;41.81
42511;BME280;28141;51.120;17.114;2022-08-27T06:03:13;101165.55;;;30.26;42.81
42511;BME280;28141;51.120;17.114;2022-08-27T06:06:16;101167.26;;;30.32;42.85
42511;BME280;28141;51.120;17.114;2022-08-27T06:09:25;101157.81;;;30.38;42.62
42511;BME280;28141;51.120;17.114;2022-08-27T06:12:30;101153.34;;;30.42;42.07
42511;BME280;28141;51.120;17.114;2022-08-27T06:15:34;101161.79;;;30.47;41.87
42511;BME280;28141;51.120;17.114;2022-08-27T06:18:37;101161.79;;;30.47;41.99
42511;BME280;28141;51.120;17.114;2022-08-27T06:22:08;101165.48;;;30.53;42.05
42511;BME280;28141;51.120;17.114;2022-08-27T06:25:11;101166.64;;;30.57;41.46
42511;BME280;28141;51.120;17.114;2022-08-27T06:28:15;101171.71;;;30.60;41.78
42511;BME280;28141;51.120;17.114;2022-08-27T06:31:22;101162.76;;;30.63;41.94
42511;BME280;28141;51.120;17.114;2022-08-27T06:34:26;101157.21;;;30.68;42.18
42511;BME280;28141;51.120;17.114;2022-08-27T06:37:29;101159.17;;;30.73;41.59
42511;BME280;28141;51.120;17.114;2022-08-27T06:40:34;101156.96;;;30.75;41.25
42511;BME280;28141;51.120;17.114;2022-08-27T06:43:38;101151.66;;;30.78;42.44
42511;BME280;28141;51.120;17.114;2022-08-27T06:46:42;101158.13;;;30.84;41.60
42511;BME280;28141;51.120;17.114;2022-08-27T06:49:46;101154.78;;;30.87;41.28
42511;BME280;28141;51.120;17.114;2022-08-27T06:53:16;101158.16;;;30.89;41.58
42511;BME280;28141;51.120;17.114;2022-08-27T06:56:20;101160.97;;;30.94;41.56
42511;BME280;28141;51.120;17.114;2022-08-27T06:59:23;101158.22;;;30.99;41.60
42511;BME280;28141;51.120;17.114;2022-08-27T07:02:27;101163.28;;;31.02;41.40
42511;BME280;28141;51.120;17.114;2022-08-27T07:05:36;101158.80;;;31.06;41.40
42511;BME280;28141;51.120;17.114;2022-08-27T07:08:40;101159.98;;;31.15;40.64
42511;BME280;28141;51.120;17.114;2022-08-27T07:11:44;101156.65;;;31.18;41.29
42511;BME280;28141;51.120;17.114;2022-08-27T07:14:47;101147.45;;;31.23;41.49
42511;BME280;28141;51.120;17.114;2022-08-27T07:17:50;101160.60;;;31.28;41.08
42511;BME280;28141;51.120;17.114;2022-08-27T07:20:54;101167.07;;;31.33;40.79
42511;BME280;28141;51.120;17.114;2022-08-27T07:24:26;101163.43;;;31.33;40.88
42511;BME280;28141;51.120;17.114;2022-08-27T07:27:29;101158.41;;;31.40;40.98
42511;BME280;28141;51.120;17.114;2022-08-27T07:30:33;101168.52;;;31.46;40.45
42511;BME280;28141;51.120;17.114;2022-08-27T07:33:37;101170.78;;;31.54;40.63
42511;BME280;28141;51.120;17.114;2022-08-27T07:36:40;101169.66;;;31.60;40.49
42511;BME280;28141;51.120;17.114;2022-08-27T07:39:44;101165.23;;;31.64;40.57
42511;BME280;28141;51.120;17.114;2022-08-27T07:46:49;101181.43;;;31.57;40.48
42511;BME280;28141;51.120;17.114;2022-08-27T07:49:52;101188.77;;;31.73;40.21
42511;BME280;28141;51.120;17.114;2022-08-27T07:52:56;101194.43;;;31.88;40.02
42511;BME280;28141;51.120;17.114;2022-08-27T07:56:06;101182.38;;;32.03;39.75
42511;BME280;28141;51.120;17.114;2022-08-27T07:59:10;101176.50;;;32.15;39.38
42511;BME280;28141;51.120;17.114;2022-08-27T08:02:14;101172.63;;;32.31;39.31
42511;BME280;28141;51.120;17.114;2022-08-27T08:05:17;101163.09;;;32.42;38.75
42511;BME280;28141;51.120;17.114;2022-08-27T08:08:22;101157.46;;;32.52;39.33
42511;BME280;28141;51.120;17.114;2022-08-27T08:11:26;101163.61;;;32.64;39.51
42511;BME280;28141;51.120;17.114;2022-08-27T08:14:30;101159.98;;;32.74;38.83
42511;BME280;28141;51.120;17.114;2022-08-27T08:18:03;101168.93;;;32.86;38.64
42511;BME280;28141;51.120;17.114;2022-08-27T08:21:11;101164.69;;;32.94;38.65
42511;BME280;28141;51.120;17.114;2022-08-27T08:24:17;101179.53;;;33.05;38.36
42511;BME280;28141;51.120;17.114;2022-08-27T08:27:21;101179.77;;;33.13;38.31
42511;BME280;28141;51.120;17.114;2022-08-27T08:30:26;101189.27;;;33.22;38.62
42511;BME280;28141;51.120;17.114;2022-08-27T08:33:56;101193.19;;;33.31;38.03
42511;BME280;28141;51.120;17.114;2022-08-27T08:37:00;101195.42;;;33.40;39.02
42511;BME280;28141;51.120;17.114;2022-08-27T08:40:05;101193.98;;;33.47;38.19
42511;BME280;28141;51.120;17.114;2022-08-27T08:43:32;101192.24;;;33.56;37.90
42511;BME280;28141;51.120;17.114;2022-08-27T08:46:34;101193.34;;;33.60;37.84
42511;BME280;28141;51.120;17.114;2022-08-27T08:49:48;101205.10;;;33.67;37.08
42511;BME280;28141;51.120;17.114;2022-08-27T08:56:49;101211.29;;;33.69;37.65
42511;BME280;28141;51.120;17.114;2022-08-27T09:00:05;101212.68;;;33.72;37.72
42511;BME280;28141;51.120;17.114;2022-08-27T09:03:11;101210.97;;;33.81;37.34
42511;BME280;28141;51.120;17.114;2022-08-27T09:10:03;101205.56;;;33.90;37.23
42511;BME280;28141;51.120;17.114;2022-08-27T09:13:22;101208.04;;;33.96;37.23
42511;BME280;28141;51.120;17.114;2022-08-27T09:16:27;101208.30;;;34.00;36.72
42511;BME280;28141;51.120;17.114;2022-08-27T09:19:31;101217.56;;;34.05;36.77
42511;BME280;28141;51.120;17.114;2022-08-27T09:23:10;101218.06;;;34.13;36.68
42511;BME280;28141;51.120;17.114;2022-08-27T09:26:22;101212.41;;;34.18;36.83
42511;BME280;28141;51.120;17.114;2022-08-27T09:29:28;101220.01;;;34.17;36.78
42511;BME280;28141;51.120;17.114;2022-08-27T09:32:33;101219.66;;;34.24;36.54
42511;BME280;28141;51.120;17.114;2022-08-27T09:35:42;101216.83;;;34.29;36.19
42511;BME280;28141;51.120;17.114;2022-08-27T09:39:12;101220.19;;;34.31;36.24
42511;BME280;28141;51.120;17.114;2022-08-27T09:42:29;101221.30;;;34.35;36.45
42511;BME280;28141;51.120;17.114;2022-08-27T09:45:34;101224.40;;;34.33;36.22
42511;BME280;28141;51.120;17.114;2022-08-27T09:48:38;101208.33;;;34.39;35.90
42511;BME280;28141;51.120;17.114;2022-08-27T09:51:44;101210.23;;;34.43;35.67
42511;BME280;28141;51.120;17.114;2022-08-27T09:54:48;101207.11;;;34.50;35.58
42511;BME280;28141;51.120;17.114;2022-08-27T09:58:29;101206.50;;;34.53;35.87
42511;BME280;28141;51.120;17.114;2022-08-27T10:04:47;101207.04;;;34.55;35.49
42511;BME280;28141;51.120;17.114;2022-08-27T10:08:02;101197.96;;;34.63;35.57
42511;BME280;28141;51.120;17.114;2022-08-27T10:14:52;101210.34;;;34.62;35.70
42511;BME280;28141;51.120;17.114;2022-08-27T10:24:41;101196.82;;;34.64;35.52
42511;BME280;28141;51.120;17.114;2022-08-27T10:34:52;101211.98;;;34.68;35.44
42511;BME280;28141;51.120;17.114;2022-08-27T10:41:53;101218.17;;;34.70;35.57
42511;BME280;28141;51.120;17.114;2022-08-27T10:51:44;101214.74;;;34.78;35.49
42511;BME280;28141;51.120;17.114;2022-08-27T10:58:40;101213.02;;;34.83;35.35
42511;BME280;28141;51.120;17.114;2022-08-27T11:05:35;101209.25;;;34.92;35.25
42511;BME280;28141;51.120;17.114;2022-08-27T11:11:58;101213.09;;;35.01;35.03
42511;BME280;28141;51.120;17.114;2022-08-27T11:15:10;101201.45;;;35.08;34.95
42511;BME280;28141;51.120;17.114;2022-08-27T11:18:48;101209.61;;;35.09;34.99
42511;BME280;28141;51.120;17.114;2022-08-27T11:22:03;101199.05;;;35.20;34.83
42511;BME280;28141;51.120;17.114;2022-08-27T11:38:56;101183.19;;;35.29;34.81
42511;BME280;28141;51.120;17.114;2022-08-27T11:49:01;101173.02;;;35.33;34.21
42511;BME280;28141;51.120;17.114;2022-08-27T11:52:07;101162.98;;;35.46;34.55
42511;BME280;28141;51.120;17.114;2022-08-27T11:58:52;101156.37;;;35.56;34.30
42511;BME280;28141;51.120;17.114;2022-08-27T12:08:31;101137.09;;;35.63;34.35
42511;BME280;28141;51.120;17.114;2022-08-27T12:15:23;101127.43;;;35.69;34.18
42511;BME280;28141;51.120;17.114;2022-08-27T12:18:37;101128.14;;;35.79;34.33
42511;BME280;28141;51.120;17.114;2022-08-27T12:24:58;101104.75;;;35.79;34.11
42511;BME280;28141;51.120;17.114;2022-08-27T12:28:04;101102.06;;;35.88;34.20
42511;BME280;28141;51.120;17.114;2022-08-27T12:31:08;101102.50;;;35.95;33.82
42511;BME280;28141;51.120;17.114;2022-08-27T12:34:46;101102.73;;;35.98;33.84
42511;BME280;28141;51.120;17.114;2022-08-27T12:37:53;101109.51;;;35.97;33.79
42511;BME280;28141;51.120;17.114;2022-08-27T12:40:58;101104.84;;;36.06;33.78
42511;BME280;28141;51.120;17.114;2022-08-27T12:44:23;101109.76;;;36.14;33.40
42511;BME280;28141;51.120;17.114;2022-08-27T12:47:53;101110.90;;;36.13;33.61
42511;BME280;28141;51.120;17.114;2022-08-27T12:51:07;101113.07;;;36.22;33.56
42511;BME280;28141;51.120;17.114;2022-08-27T12:54:26;101110.14;;;36.27;33.42
42511;BME280;28141;51.120;17.114;2022-08-27T13:04:30;101123.03;;;36.33;33.42
42511;BME280;28141;51.120;17.114;2022-08-27T13:07:41;101113.42;;;36.47;33.22
42511;BME280;28141;51.120;17.114;2022-08-27T13:10:45;101118.15;;;36.52;33.24
42511;BME280;28141;51.120;17.114;2022-08-27T13:13:51;101115.21;;;36.57;33.25
42511;BME280;28141;51.120;17.114;2022-08-27T13:17:03;101115.13;;;36.62;33.03
42511;BME280;28141;51.120;17.114;2022-08-27T13:20:15;101110.85;;;36.65;32.95
42511;BME280;28141;51.120;17.114;2022-08-27T13:23:20;101116.50;;;36.65;33.17
42511;BME280;28141;51.120;17.114;2022-08-27T13:26:29;101118.62;;;36.73;33.08
42511;BME280;28141;51.120;17.114;2022-08-27T13:29:36;101119.87;;;36.80;32.58
42511;BME280;28141;51.120;17.114;2022-08-27T13:33:14;101118.71;;;36.81;32.68
42511;BME280;28141;51.120;17.114;2022-08-27T13:39:36;101118.19;;;36.79;32.40
42511;BME280;28141;51.120;17.114;2022-08-27T13:42:41;101121.95;;;36.88;32.20
42511;BME280;28141;51.120;17.114;2022-08-27T13:45:48;101111.93;;;36.96;32.87
42511;BME280;28141;51.120;17.114;2022-08-27T13:48:57;101122.79;;;37.03;32.74
42511;BME280;28141;51.120;17.114;2022-08-27T13:52:14;101121.02;;;37.07;32.53
42511;BME280;28141;51.120;17.114;2022-08-27T13:55:47;101124.46;;;37.04;32.35
42511;BME280;28141;51.120;17.114;2022-08-27T13:58:52;101116.53;;;37.06;32.30
42511;BME280;28141;51.120;17.114;2022-08-27T14:05:14;101122.57;;;37.13;32.17
42511;BME280;28141;51.120;17.114;2022-08-27T14:08:22;101113.72;;;37.19;32.52
42511;BME280;28141;51.120;17.114;2022-08-27T14:11:31;101113.80;;;37.28;31.83
42511;BME280;28141;51.120;17.114;2022-08-27T14:14:40;101121.97;;;37.30;31.71
42511;BME280;28141;51.120;17.114;2022-08-27T14:17:44;101114.64;;;37.28;31.64
42511;BME280;28141;51.120;17.114;2022-08-27T14:20:49;101117.16;;;37.30;31.98
42511;BME280;28141;51.120;17.114;2022-08-27T14:24:23;101123.43;;;37.27;31.98
42511;BME280;28141;51.120;17.114;2022-08-27T14:27:28;101118.40;;;37.24;31.78
42511;BME280;28141;51.120;17.114;2022-08-27T14:30:31;101125.21;;;37.23;31.80
42511;BME280;28141;51.120;17.114;2022-08-27T14:33:35;101122.51;;;37.18;32.31
42511;BME280;28141;51.120;17.114;2022-08-27T14:36:39;101122.57;;;37.13;32.67
42511;BME280;28141;51.120;17.114;2022-08-27T14:39:43;101130.52;;;37.11;32.52
42511;BME280;28141;51.120;17.114;2022-08-27T14:42:47;101122.17;;;37.06;32.18
42511;BME280;28141;51.120;17.114;2022-08-27T14:45:51;101117.27;;;36.98;32.50
42511;BME280;28141;51.120;17.114;2022-08-27T14:48:58;101115.06;;;36.95;32.57
42511;BME280;28141;51.120;17.114;2022-08-27T14:52:03;101126.45;;;36.89;32.25
42511;BME280;28141;51.120;17.114;2022-08-27T14:55:09;101130.54;;;36.83;32.71
42511;BME280;28141;51.120;17.114;2022-08-27T14:58:15;101135.13;;;36.79;32.65
42511;BME280;28141;51.120;17.114;2022-08-27T15:01:22;101119.46;;;36.73;32.80
42511;BME280;28141;51.120;17.114;2022-08-27T15:04:27;101119.23;;;36.70;32.26
42511;BME280;28141;51.120;17.114;2022-08-27T15:08:00;101123.90;;;36.61;32.68
42511;BME280;28141;51.120;17.114;2022-08-27T15:11:04;101112.73;;;36.55;33.22
42511;BME280;28141;51.120;17.114;2022-08-27T15:14:15;101111.66;;;36.51;32.91
42511;BME280;28141;51.120;17.114;2022-08-27T15:17:21;101110.71;;;36.42;32.91
42511;BME280;28141;51.120;17.114;2022-08-27T15:20:24;101105.99;;;36.38;32.97
42511;BME280;28141;51.120;17.114;2022-08-27T15:23:28;101116.75;;;36.36;33.08
42511;BME280;28141;51.120;17.114;2022-08-27T15:26:32;101108.92;;;36.33;33.13
42511;BME280;28141;51.120;17.114;2022-08-27T15:29:36;101109.22;;;36.31;32.67
42511;BME280;28141;51.120;17.114;2022-08-27T15:32:42;101107.02;;;36.28;32.90
42511;BME280;28141;51.120;17.114;2022-08-27T15:35:47;101106.29;;;36.23;33.16
42511;BME280;28141;51.120;17.114;2022-08-27T15:38:50;101103.77;;;36.21;33.12
42511;BME280;28141;51.120;17.114;2022-08-27T15:41:54;101099.86;;;36.17;32.80
42511;BME280;28141;51.120;17.114;2022-08-27T15:44:57;101097.98;;;36.12;33.28
42511;BME280;28141;51.120;17.114;2022-08-27T15:48:01;101091.80;;;36.10;33.42
42511;BME280;28141;51.120;17.114;2022-08-27T15:51:08;101093.55;;;36.06;33.06
42511;BME280;28141;51.120;17.114;2022-08-27T15:54:36;101091.88;;;36.05;33.38
42511;BME280;28141;51.120;17.114;2022-08-27T15:57:40;101089.67;;;36.02;33.41
42511;BME280;28141;51.120;17.114;2022-08-27T16:00:44;101082.38;;;36.01;33.77
42511;BME280;28141;51.120;17.114;2022-08-27T16:03:48;101086.85;;;36.02;33.24
42511;BME280;28141;51.120;17.114;2022-08-27T16:06:52;101087.50;;;36.13;33.40
42511;BME280;28141;51.120;17.114;2022-08-27T16:09:56;101085.82;;;36.31;33.27
42511;BME280;28141;51.120;17.114;2022-08-27T16:13:00;101097.45;;;36.43;32.76
42511;BME280;28141;51.120;17.114;2022-08-27T16:16:05;101093.14;;;36.45;33.18
42511;BME280;28141;51.120;17.114;2022-08-27T16:19:09;101092.84;;;36.47;32.77
42511;BME280;28141;51.120;17.114;2022-08-27T16:22:13;101082.69;;;36.46;33.00
42511;BME280;28141;51.120;17.114;2022-08-27T16:25:18;101087.63;;;36.54;32.96
42511;BME280;28141;51.120;17.114;2022-08-27T16:28:54;101088.36;;;36.60;32.77
42511;BME280;28141;51.120;17.114;2022-08-27T16:31:57;101079.99;;;36.68;32.83
42511;BME280;28141;51.120;17.114;2022-08-27T16:35:01;101089.02;;;36.84;32.13
42511;BME280;28141;51.120;17.114;2022-08-27T16:38:05;101088.50;;;36.96;32.20
42511;BME280;28141;51.120;17.114;2022-08-27T16:41:09;101076.98;;;37.06;32.10
42511;BME280;28141;51.120;17.114;2022-08-27T16:44:13;101084.70;;;37.14;32.08
42511;BME280;28141;51.120;17.114;2022-08-27T16:47:19;101083.97;;;37.22;32.37
42511;BME280;28141;51.120;17.114;2022-08-27T16:50:22;101088.05;;;37.30;31.82
42511;BME280;28141;51.120;17.114;2022-08-27T16:53:39;101086.08;;;37.30;31.75
42511;BME280;28141;51.120;17.114;2022-08-27T16:56:44;101092.63;;;37.39;31.59
42511;BME280;28141;51.120;17.114;2022-08-27T16:59:48;101088.00;;;37.43;31.28
42511;BME280;28141;51.120;17.114;2022-08-27T17:02:51;101088.52;;;37.45;31.89
42511;BME280;28141;51.120;17.114;2022-08-27T17:05:55;101091.03;;;37.47;31.75
42511;BME280;28141;51.120;17.114;2022-08-27T17:08:59;101089.67;;;37.44;31.31
42511;BME280;28141;51.120;17.114;2022-08-27T17:12:35;101093.79;;;37.38;31.69
42511;BME280;28141;51.120;17.114;2022-08-27T17:15:39;101087.62;;;37.36;32.36
42511;BME280;28141;51.120;17.114;2022-08-27T17:18:43;101097.87;;;37.32;31.42
42511;BME280;28141;51.120;17.114;2022-08-27T17:21:47;101098.21;;;37.31;31.77
42511;BME280;28141;51.120;17.114;2022-08-27T17:24:51;101101.45;;;37.24;31.90
42511;BME280;28141;51.120;17.114;2022-08-27T17:27:55;101104.41;;;37.19;31.76
42511;BME280;28141;51.120;17.114;2022-08-27T17:31:00;101105.63;;;37.13;31.76
42511;BME280;28141;51.120;17.114;2022-08-27T17:34:05;101106.06;;;37.06;31.46
42511;BME280;28141;51.120;17.114;2022-08-27T17:37:09;101112.12;;;37.00;32.11
42511;BME280;28141;51.120;17.114;2022-08-27T17:40:12;101103.85;;;36.89;32.16
42511;BME280;28141;51.120;17.114;2022-08-27T17:43:16;101111.93;;;36.82;32.01
42511;BME280;28141;51.120;17.114;2022-08-27T17:46:19;101127.92;;;36.73;31.96
42511;BME280;28141;51.120;17.114;2022-08-27T17:49:23;101116.19;;;36.66;32.45
42511;BME280;28141;51.120;17.114;2022-08-27T17:52:27;101128.17;;;36.58;32.72
42511;BME280;28141;51.120;17.114;2022-08-27T17:55:31;101123.26;;;36.50;32.72
42511;BME280;28141;51.120;17.114;2022-08-27T17:58:38;101127.95;;;36.41;32.55